createdAt,value
2018-12-25T00:00:28.592Z,49.56
2018-12-25T00:03:02.062Z,49.70
2018-12-25T00:05:33.945Z,49.35
2018-12-25T00:08:05.121Z,50.32
2018-12-25T00:10:35.734Z,50.95
2018-12-25T00:13:08.846Z,50.10
2018-12-25T00:15:40.754Z,49.94
2018-12-25T00:18:13.561Z,49.34
2018-12-25T00:20:44.844Z,49.01
2018-12-25T00:23:15.651Z,49.60
2018-12-25T00:25:46.571Z,49.17
2018-12-25T00:28:17.836Z,49.33
2018-12-25T00:30:49.028Z,48.97
2018-12-25T00:33:19.792Z,49.84
2018-12-25T00:35:52.664Z,49.37
2018-12-25T00:38:26.080Z,51.21
2018-12-25T00:40:56.913Z,51.47
2018-12-25T00:43:27.816Z,50.86
2018-12-25T00:45:59.280Z,51.21
2018-12-25T00:48:30.690Z,50.23
2018-12-25T00:51:03.086Z,49.61
2018-12-25T00:53:36.887Z,49.28
2018-12-25T00:56:10.243Z,50.76
2018-12-25T00:58:42.158Z,51.40
2018-12-25T01:01:12.775Z,50.96
2018-12-25T01:03:45.361Z,51.13
2018-12-25T01:06:17.560Z,51.74
2018-12-25T01:08:49.495Z,51.78
2018-12-25T01:11:21.078Z,51.35
2018-12-25T01:13:51.436Z,51.20
2018-12-25T01:16:29.109Z,50.64
2018-12-25T01:19:04.557Z,50.97
2018-12-25T01:21:38.728Z,50.55
2018-12-25T01:24:10.387Z,50.90
2018-12-25T01:26:41.636Z,50.97
2018-12-25T01:29:12.678Z,50.68
2018-12-25T01:31:43.104Z,50.45
2018-12-25T01:34:13.756Z,49.77
2018-12-25T01:36:46.483Z,49.25
2018-12-25T01:39:20.843Z,48.79
2018-12-25T01:41:51.886Z,48.72
2018-12-25T01:44:22.382Z,49.35
2018-12-25T01:46:52.826Z,48.94
2018-12-25T01:49:31.549Z,49.31
2018-12-25T01:51:56.467Z,49.10
2018-12-25T01:54:30.885Z,48.40
2018-12-25T01:57:05.471Z,48.50
2018-12-25T01:59:36.645Z,47.78
2018-12-25T02:02:08.751Z,47.82
2018-12-25T02:04:43.187Z,51.41
2018-12-25T02:07:17.029Z,50.04
2018-12-25T02:09:50.749Z,50.70
2018-12-25T02:12:22.798Z,48.77
2018-12-25T02:14:53.268Z,48.29
2018-12-25T02:17:24.471Z,48.45
2018-12-25T02:19:55.227Z,48.90
2018-12-25T02:22:25.862Z,49.94
2018-12-25T02:24:58.381Z,49.88
2018-12-25T02:27:29.684Z,50.33
2018-12-25T02:30:00.365Z,49.73
2018-12-25T02:32:35.173Z,48.98
2018-12-25T02:35:08.035Z,49.42
2018-12-25T02:37:43.098Z,49.78
2018-12-25T02:40:22.466Z,49.02
2018-12-25T02:43:06.154Z,48.97
2018-12-25T02:45:36.736Z,49.71
2018-12-25T02:48:08.015Z,49.83
2018-12-25T02:50:38.339Z,49.04
2018-12-25T02:53:09.072Z,49.72
2018-12-25T02:55:40.628Z,48.58
2018-12-25T02:58:13.103Z,48.09
2018-12-25T03:00:46.540Z,48.22
2018-12-25T03:03:19.689Z,47.88
2018-12-25T03:05:51.303Z,47.71
2018-12-25T03:08:24.452Z,48.13
2018-12-25T03:10:54.774Z,47.57
2018-12-25T03:13:28.680Z,47.07
2018-12-25T03:15:59.659Z,47.37
2018-12-25T03:18:31.149Z,47.09
2018-12-25T03:21:01.456Z,47.04
2018-12-25T03:23:32.270Z,47.01
2018-12-25T03:26:02.868Z,47.15
2018-12-25T03:28:35.554Z,46.99
2018-12-25T03:31:07.520Z,47.96
2018-12-25T03:33:38.765Z,47.94
2018-12-25T03:36:10.195Z,46.96
2018-12-25T03:38:41.193Z,47.24
2018-12-25T03:41:11.481Z,47.55
2018-12-25T03:43:46.740Z,46.98
2018-12-25T03:46:18.174Z,47.50
2018-12-25T03:48:49.566Z,47.63
2018-12-25T03:51:22.269Z,47.29
2018-12-25T03:53:52.959Z,47.40
2018-12-25T03:56:23.886Z,47.15
2018-12-25T03:58:56.466Z,47.29
2018-12-25T04:01:27.089Z,46.85
2018-12-25T04:04:01.022Z,46.99
2018-12-25T04:06:32.768Z,46.59
2018-12-25T04:09:04.723Z,46.52
2018-12-25T04:11:35.915Z,46.71
2018-12-25T04:14:08.036Z,46.95
2018-12-25T04:16:39.548Z,46.86
2018-12-25T04:19:10.927Z,46.89
2018-12-25T04:21:41.710Z,46.49
2018-12-25T04:24:12.490Z,46.38
2018-12-25T04:26:42.781Z,46.03
2018-12-25T04:29:14.764Z,45.73
2018-12-25T04:31:46.184Z,45.18
2018-12-25T04:34:16.505Z,44.80
2018-12-25T04:36:46.963Z,44.84
2018-12-25T04:39:18.691Z,44.54
2018-12-25T04:41:49.004Z,44.03
2018-12-25T04:44:20.656Z,44.03
2018-12-25T04:46:52.962Z,43.34
2018-12-25T04:49:24.126Z,43.84
2018-12-25T04:51:56.480Z,43.33
2018-12-25T04:54:29.129Z,43.40
2018-12-25T04:57:01.605Z,43.08
2018-12-25T04:59:35.253Z,43.95
2018-12-25T05:02:05.923Z,43.67
2018-12-25T05:04:36.306Z,44.51
2018-12-25T05:07:10.697Z,43.87
2018-12-25T05:09:41.122Z,44.23
2018-12-25T05:12:13.602Z,44.16
2018-12-25T05:14:46.793Z,44.35
2018-12-25T05:17:17.120Z,44.55
2018-12-25T05:19:48.778Z,44.36
2018-12-25T05:22:20.026Z,43.45
2018-12-25T05:24:50.961Z,43.45
2018-12-25T05:27:22.896Z,44.24
2018-12-25T05:29:55.727Z,43.69
2018-12-25T05:32:26.566Z,45.05
2018-12-25T05:34:58.261Z,45.38
2018-12-25T05:37:29.073Z,45.13
2018-12-25T05:40:00.605Z,45.31
2018-12-25T05:42:31.559Z,45.42
2018-12-25T05:45:02.731Z,45.74
2018-12-25T05:47:38.253Z,45.35
2018-12-25T05:50:10.731Z,45.37
2018-12-25T05:52:43.105Z,45.38
2018-12-25T05:55:13.842Z,45.42
2018-12-25T05:57:48.162Z,45.54
2018-12-25T06:00:19.717Z,45.73
2018-12-25T06:02:51.887Z,45.73
2018-12-25T06:05:22.724Z,45.79
2018-12-25T06:07:55.631Z,46.07
2018-12-25T06:10:27.350Z,46.35
2018-12-25T06:13:12.751Z,46.59
2018-12-25T06:15:46.651Z,46.48
2018-12-25T06:18:17.623Z,46.44
2018-12-25T06:20:55.063Z,47.07
2018-12-25T06:23:23.242Z,47.17
2018-12-25T06:25:55.132Z,47.11
2018-12-25T06:28:26.560Z,46.77
2018-12-25T06:30:59.168Z,47.78
2018-12-25T06:33:29.736Z,47.26
2018-12-25T06:36:00.916Z,47.11
2018-12-25T06:38:31.984Z,47.09
2018-12-25T06:41:02.720Z,47.58
2018-12-25T06:43:33.944Z,47.06
2018-12-25T06:46:05.319Z,47.07
2018-12-25T06:48:36.669Z,46.92
2018-12-25T06:51:08.958Z,46.83
2018-12-25T06:53:39.855Z,46.69
2018-12-25T06:56:11.261Z,46.47
2018-12-25T06:58:42.510Z,46.22
2018-12-25T07:01:14.256Z,46.39
2018-12-25T07:03:45.666Z,46.16
2018-12-25T07:06:16.005Z,46.17
2018-12-25T07:08:48.015Z,46.29
2018-12-25T07:11:19.829Z,46.40
2018-12-25T07:13:51.630Z,46.44
2018-12-25T07:16:23.862Z,47.29
2018-12-25T07:18:55.152Z,48.93
2018-12-25T07:21:25.845Z,48.66
2018-12-25T07:23:59.142Z,48.21
2018-12-25T07:26:29.551Z,47.81
2018-12-25T07:29:00.512Z,47.66
2018-12-25T07:31:31.451Z,47.74
2018-12-25T07:34:02.082Z,47.35
2018-12-25T07:36:33.025Z,47.20
2018-12-25T07:39:04.497Z,47.21
2018-12-25T07:41:37.794Z,46.63
2018-12-25T07:44:09.041Z,46.16
2018-12-25T07:46:41.314Z,46.13
2018-12-25T07:49:13.686Z,44.92
2018-12-25T07:51:48.479Z,44.16
2018-12-25T07:54:20.442Z,44.59
2018-12-25T07:56:55.010Z,44.31
2018-12-25T07:59:28.409Z,44.35
2018-12-25T08:02:00.432Z,42.88
2018-12-25T08:04:32.605Z,42.87
2018-12-25T08:07:06.205Z,42.51
2018-12-25T08:09:37.599Z,42.25
2018-12-25T08:12:09.144Z,42.91
2018-12-25T08:14:39.816Z,42.29
2018-12-25T08:17:12.864Z,43.02
2018-12-25T08:19:47.295Z,42.60
2018-12-25T08:22:19.322Z,42.48
2018-12-25T08:24:50.974Z,42.94
2018-12-25T08:27:26.459Z,42.66
2018-12-25T08:29:59.963Z,42.33
2018-12-25T08:32:31.753Z,42.32
2018-12-25T08:35:05.573Z,42.06
2018-12-25T08:37:48.791Z,41.97
2018-12-25T08:40:23.830Z,42.15
2018-12-25T08:42:57.379Z,41.91
2018-12-25T08:45:27.792Z,42.62
2018-12-25T08:47:59.262Z,43.15
2018-12-25T08:50:32.078Z,42.71
2018-12-25T08:53:04.316Z,42.91
2018-12-25T08:55:38.719Z,42.13
2018-12-25T08:58:12.092Z,42.58
2018-12-25T09:00:42.954Z,41.85
2018-12-25T09:03:32.713Z,41.76
2018-12-25T09:06:15.652Z,41.57
2018-12-25T09:08:49.017Z,41.58
2018-12-25T09:11:24.784Z,41.72
2018-12-25T09:13:57.310Z,41.35
2018-12-25T09:16:27.611Z,41.42
2018-12-25T09:18:59.042Z,41.04
2018-12-25T09:21:30.211Z,40.71
2018-12-25T09:24:04.292Z,40.67
2018-12-25T09:26:34.594Z,40.19
2018-12-25T09:29:04.995Z,40.16
2018-12-25T09:31:36.385Z,40.38
2018-12-25T09:34:12.852Z,40.21
2018-12-25T09:36:43.327Z,39.96
2018-12-25T09:39:15.081Z,39.79
2018-12-25T09:41:46.954Z,39.37
2018-12-25T09:44:17.853Z,39.14
2018-12-25T09:46:48.134Z,39.29
2018-12-25T09:49:18.443Z,41.35
2018-12-25T09:51:54.533Z,43.37
2018-12-25T09:54:24.271Z,43.37
2018-12-25T09:56:54.697Z,44.06
2018-12-25T09:59:26.975Z,43.34
2018-12-25T10:01:57.401Z,43.84
2018-12-25T10:04:28.919Z,43.57
2018-12-25T10:06:59.976Z,43.82
2018-12-25T10:09:31.059Z,44.44
2018-12-25T10:12:02.539Z,44.03
2018-12-25T10:14:34.311Z,43.68
2018-12-25T10:17:05.084Z,43.11
2018-12-25T10:19:39.741Z,42.99
2018-12-25T10:22:15.840Z,42.85
2018-12-25T10:24:46.572Z,43.00
2018-12-25T10:27:17.334Z,42.78
2018-12-25T10:29:48.048Z,42.38
2018-12-25T10:32:19.512Z,42.20
2018-12-25T10:34:51.850Z,42.02
2018-12-25T10:37:22.271Z,41.59
2018-12-25T10:39:53.052Z,40.71
2018-12-25T10:42:23.424Z,40.09
2018-12-25T10:44:54.053Z,39.85
2018-12-25T10:47:26.651Z,38.33
2018-12-25T10:50:00.296Z,36.64
2018-12-25T10:52:30.626Z,36.47
2018-12-25T10:55:02.657Z,36.40
2018-12-25T10:57:34.124Z,36.34
2018-12-25T11:00:06.399Z,36.40
2018-12-25T11:02:36.844Z,36.61
2018-12-25T11:05:09.290Z,36.68
2018-12-25T11:07:39.611Z,36.89
2018-12-25T11:10:10.140Z,37.01
2018-12-25T11:12:44.519Z,37.15
2018-12-25T11:15:16.337Z,37.75
2018-12-25T11:17:47.095Z,37.32
2018-12-25T11:20:19.140Z,37.51
2018-12-25T11:22:53.855Z,37.20
2018-12-25T11:25:28.088Z,36.62
2018-12-25T11:27:59.444Z,36.60
2018-12-25T11:30:32.321Z,37.15
2018-12-25T11:33:04.163Z,37.17
2018-12-25T11:35:35.756Z,37.17
2018-12-25T11:38:08.291Z,36.71
2018-12-25T11:40:42.297Z,37.29
2018-12-25T11:43:17.353Z,37.18
2018-12-25T11:45:48.011Z,36.94
2018-12-25T11:48:19.994Z,37.34
2018-12-25T11:50:51.031Z,36.92
2018-12-25T11:53:21.727Z,36.91
2018-12-25T11:55:54.731Z,36.85
2018-12-25T11:58:30.526Z,37.18
2018-12-25T12:01:01.166Z,37.54
2018-12-25T12:03:37.136Z,37.58
2018-12-25T12:06:17.278Z,38.27
2018-12-25T12:08:49.591Z,38.17
2018-12-25T12:11:20.138Z,37.66
2018-12-25T12:13:52.310Z,38.47
2018-12-25T12:16:25.897Z,37.70
2018-12-25T12:18:59.775Z,37.65
2018-12-25T12:21:33.220Z,37.99
2018-12-25T12:24:12.079Z,37.90
2018-12-25T12:26:49.237Z,38.51
2018-12-25T12:29:22.713Z,37.86
2018-12-25T12:31:55.826Z,38.49
2018-12-25T12:34:26.947Z,38.74
2018-12-25T12:37:00.492Z,38.30
2018-12-25T12:39:35.739Z,38.57
2018-12-25T12:42:08.188Z,38.77
2018-12-25T12:44:40.817Z,38.72
2018-12-25T12:47:16.082Z,38.80
2018-12-25T12:49:46.822Z,38.84
2018-12-25T12:52:18.405Z,38.59
2018-12-25T12:54:50.892Z,38.35
2018-12-25T12:57:22.344Z,38.20
2018-12-25T12:59:58.525Z,38.48
2018-12-25T13:02:36.720Z,38.50
2018-12-25T13:05:08.777Z,38.69
2018-12-25T13:07:39.194Z,38.12
2018-12-25T13:10:09.933Z,38.57
2018-12-25T13:12:40.286Z,38.12
2018-12-25T13:15:11.764Z,38.46
2018-12-25T13:17:45.415Z,38.62
2018-12-25T13:20:16.338Z,38.94
2018-12-25T13:22:53.876Z,38.92
2018-12-25T13:25:20.510Z,39.18
2018-12-25T13:27:53.054Z,39.02
2018-12-25T13:30:27.855Z,38.60
2018-12-25T13:32:59.479Z,38.89
2018-12-25T13:35:33.883Z,39.16
2018-12-25T13:38:19.010Z,38.57
2018-12-25T13:40:50.992Z,38.19
2018-12-25T13:43:25.218Z,38.99
2018-12-25T13:45:55.787Z,39.36
2018-12-25T13:48:28.549Z,39.69
2018-12-25T13:51:01.351Z,39.80
2018-12-25T13:53:35.570Z,39.03
2018-12-25T13:56:06.544Z,39.39
2018-12-25T13:58:38.859Z,39.04
2018-12-25T14:01:10.824Z,38.68
2018-12-25T14:03:48.068Z,38.80
2018-12-25T14:06:19.361Z,39.02
2018-12-25T14:08:52.795Z,38.43
2018-12-25T14:11:27.897Z,38.54
2018-12-25T14:14:01.312Z,37.97
2018-12-25T14:16:35.310Z,38.47
2018-12-25T14:19:10.494Z,38.19
2018-12-25T14:21:43.543Z,38.84
2018-12-25T14:24:16.675Z,38.87
2018-12-25T14:26:50.969Z,38.84
2018-12-25T14:29:23.756Z,38.64
2018-12-25T14:31:58.873Z,38.42
2018-12-25T14:34:31.540Z,38.08
2018-12-25T14:37:04.058Z,37.80
2018-12-25T14:39:35.232Z,37.84
2018-12-25T14:42:08.657Z,37.83
2018-12-25T14:44:40.357Z,37.41
2018-12-25T14:47:18.061Z,37.83
2018-12-25T14:49:52.021Z,37.67
2018-12-25T14:52:24.421Z,37.88
2018-12-25T14:54:58.076Z,40.00
2018-12-25T14:57:28.702Z,39.18
2018-12-25T15:00:04.690Z,40.35
2018-12-25T15:02:36.711Z,40.43
2018-12-25T15:05:09.998Z,40.83
2018-12-25T15:07:40.714Z,40.14
2018-12-25T15:10:12.519Z,39.75
2018-12-25T15:12:46.545Z,40.44
2018-12-25T15:15:17.426Z,40.71
2018-12-25T15:17:51.233Z,40.22
2018-12-25T15:20:31.197Z,42.32
2018-12-25T15:23:05.832Z,43.52
2018-12-25T15:25:38.374Z,41.49
2018-12-25T15:28:11.238Z,40.77
2018-12-25T15:30:44.790Z,42.19
2018-12-25T15:33:16.389Z,41.48
2018-12-25T15:35:49.201Z,40.79
2018-12-25T15:38:21.624Z,41.61
2018-12-25T15:40:55.092Z,41.64
2018-12-25T15:43:27.630Z,41.60
2018-12-25T15:46:11.470Z,41.42
2018-12-25T15:48:50.626Z,40.44
2018-12-25T15:51:23.101Z,41.69
2018-12-25T15:53:56.031Z,41.15
2018-12-25T15:56:26.452Z,40.50
2018-12-25T15:58:57.926Z,40.57
2018-12-25T16:01:31.622Z,40.23
2018-12-25T16:04:02.651Z,40.30
2018-12-25T16:06:38.716Z,40.43
2018-12-25T16:09:12.888Z,40.29
2018-12-25T16:11:45.164Z,39.93
2018-12-25T16:14:28.300Z,39.72
2018-12-25T16:17:01.463Z,40.02
2018-12-25T16:19:35.152Z,40.69
2018-12-25T16:22:06.686Z,40.92
2018-12-25T16:24:42.722Z,40.11
2018-12-25T16:27:15.088Z,41.59
2018-12-25T16:29:45.403Z,40.49
2018-12-25T16:32:20.665Z,40.23
2018-12-25T16:34:52.449Z,39.98
2018-12-25T16:37:23.902Z,40.31
2018-12-25T16:39:56.232Z,40.16
2018-12-25T16:42:27.005Z,39.73
2018-12-25T16:44:57.311Z,39.76
2018-12-25T16:47:27.689Z,39.44
2018-12-25T16:49:58.045Z,39.40
2018-12-25T16:52:28.916Z,39.17
2018-12-25T16:55:03.710Z,39.90
2018-12-25T16:57:35.727Z,39.87
2018-12-25T17:00:08.266Z,39.54
2018-12-25T17:02:44.019Z,39.30
2018-12-25T17:05:18.168Z,40.41
2018-12-25T17:07:52.505Z,39.86
2018-12-25T17:10:26.702Z,39.76
2018-12-25T17:12:58.289Z,40.55
2018-12-25T17:15:30.060Z,40.85
2018-12-25T17:18:03.718Z,40.11
2018-12-25T17:20:49.834Z,40.47
2018-12-25T17:23:21.226Z,39.61
2018-12-25T17:25:52.865Z,39.51
2018-12-25T17:28:27.922Z,39.16
2018-12-25T17:31:00.768Z,38.87
2018-12-25T17:33:33.753Z,38.89
2018-12-25T17:36:05.514Z,38.74
2018-12-25T17:38:39.426Z,39.11
2018-12-25T17:41:14.576Z,39.94
2018-12-25T17:43:53.884Z,38.97
2018-12-25T17:46:26.645Z,39.26
2018-12-25T17:49:00.556Z,39.71
2018-12-25T17:51:31.555Z,39.39
2018-12-25T17:54:10.488Z,40.30
2018-12-25T17:56:37.873Z,41.84
2018-12-25T17:59:08.185Z,40.69
2018-12-25T18:01:39.461Z,41.13
2018-12-25T18:04:14.408Z,41.89
2018-12-25T18:06:48.888Z,40.63
2018-12-25T18:09:22.842Z,40.36
2018-12-25T18:11:55.061Z,40.76
2018-12-25T18:14:26.261Z,41.01
2018-12-25T18:16:58.373Z,41.13
2018-12-25T18:19:42.771Z,41.21
2018-12-25T18:22:15.976Z,40.71
2018-12-25T18:24:47.226Z,40.13
2018-12-25T18:27:19.195Z,40.12
2018-12-25T18:29:51.757Z,39.73
2018-12-25T18:32:32.507Z,40.48
2018-12-25T18:35:03.463Z,41.58
2018-12-25T18:37:36.481Z,41.87
2018-12-25T18:40:09.242Z,42.86
2018-12-25T18:42:40.790Z,42.47
2018-12-25T18:45:11.643Z,41.65
2018-12-25T18:47:44.938Z,41.19
2018-12-25T18:50:17.331Z,41.17
2018-12-25T18:52:51.264Z,41.23
2018-12-25T18:55:21.656Z,41.06
2018-12-25T18:57:51.960Z,40.54
2018-12-25T19:00:24.846Z,41.23
2018-12-25T19:02:55.554Z,41.82
2018-12-25T19:05:26.233Z,42.87
2018-12-25T19:07:59.699Z,42.47
2018-12-25T19:10:30.872Z,41.69
2018-12-25T19:13:01.294Z,41.77
2018-12-25T19:15:35.798Z,41.80
2018-12-25T19:18:08.878Z,42.97
2018-12-25T19:20:41.263Z,42.35
2018-12-25T19:23:12.499Z,44.43
2018-12-25T19:25:45.535Z,42.92
2018-12-25T19:28:18.009Z,42.97
2018-12-25T19:30:50.353Z,42.28
2018-12-25T19:33:22.320Z,42.01
2018-12-25T19:35:57.859Z,41.72
2018-12-25T19:38:37.731Z,41.55
2018-12-25T19:41:10.251Z,41.47
2018-12-25T19:43:44.969Z,41.37
2018-12-25T19:46:20.982Z,41.00
2018-12-25T19:48:52.191Z,41.19
2018-12-25T19:51:26.869Z,41.23
2018-12-25T19:54:04.979Z,41.90
2018-12-25T19:56:52.220Z,41.48
2018-12-25T19:59:22.953Z,40.97
2018-12-25T20:01:58.022Z,40.58
2018-12-25T20:04:40.891Z,40.82
2018-12-25T20:07:54.245Z,40.80
2018-12-25T20:11:08.697Z,40.49
2018-12-25T20:14:33.216Z,41.06
2018-12-25T20:17:50.088Z,40.60
2018-12-25T20:21:14.090Z,40.89
2018-12-25T20:24:01.722Z,41.01
2018-12-25T20:27:29.711Z,41.14
2018-12-25T20:30:47.806Z,41.33
2018-12-25T20:33:41.832Z,41.98
2018-12-25T20:36:49.357Z,41.58
2018-12-25T20:40:08.398Z,40.95
2018-12-25T20:43:09.430Z,41.29
2018-12-25T20:46:12.339Z,41.40
2018-12-25T20:49:42.164Z,41.29
2018-12-25T20:52:59.262Z,41.34
2018-12-25T20:56:17.635Z,41.27
2018-12-25T20:59:37.907Z,41.22
2018-12-25T21:02:43.902Z,41.69
2018-12-25T21:05:55.719Z,41.49
2018-12-25T21:09:09.873Z,42.03
2018-12-25T21:12:26.127Z,42.25
2018-12-25T21:15:37.494Z,42.80
2018-12-25T21:19:02.169Z,42.85
2018-12-25T21:22:08.607Z,43.05
2018-12-25T21:25:17.782Z,43.06
2018-12-25T21:27:46.628Z,43.37
2018-12-25T21:30:18.758Z,43.56
2018-12-25T21:32:49.456Z,43.62
2018-12-25T21:35:26.615Z,43.89
2018-12-25T21:38:00.467Z,43.78
2018-12-25T21:40:32.502Z,43.79
2018-12-25T21:43:04.111Z,43.86
2018-12-25T21:45:37.458Z,43.92
2018-12-25T21:48:09.299Z,43.93
2018-12-25T21:50:40.714Z,43.87
2018-12-25T21:53:26.453Z,43.53
2018-12-25T21:56:00.633Z,43.46
2018-12-25T21:58:35.438Z,43.46
2018-12-25T22:01:07.319Z,43.30
2018-12-25T22:03:39.043Z,43.71
2018-12-25T22:06:10.511Z,43.56
2018-12-25T22:08:45.517Z,44.07
2018-12-25T22:11:17.726Z,43.95
2018-12-25T22:13:51.576Z,43.42
2018-12-25T22:16:24.121Z,43.28
2018-12-25T22:18:58.308Z,43.60
2018-12-25T22:21:30.408Z,43.41
2018-12-25T22:24:04.060Z,43.59
2018-12-25T22:26:42.208Z,43.33
2018-12-25T22:29:14.190Z,44.03
2018-12-25T22:31:44.509Z,43.29
2018-12-25T22:34:15.524Z,43.24
2018-12-25T22:36:46.764Z,43.32
2018-12-25T22:39:18.999Z,43.22
2018-12-25T22:41:50.793Z,43.34
2018-12-25T22:44:22.925Z,43.17
2018-12-25T22:46:54.214Z,43.51
2018-12-25T22:49:26.512Z,43.62
2018-12-25T22:52:00.820Z,43.72
2018-12-25T22:54:33.498Z,43.31
2018-12-25T22:57:05.235Z,43.48
2018-12-25T22:59:37.756Z,43.34
2018-12-25T23:02:09.805Z,43.49
2018-12-25T23:04:43.655Z,43.58
2018-12-25T23:07:16.184Z,43.80
2018-12-25T23:09:50.251Z,45.91
2018-12-25T23:12:21.106Z,45.80
2018-12-25T23:14:52.252Z,44.88
2018-12-25T23:17:22.580Z,44.46
2018-12-25T23:19:55.895Z,45.12
2018-12-25T23:22:41.311Z,44.79
2018-12-25T23:25:14.881Z,44.57
2018-12-25T23:27:50.620Z,44.42
2018-12-25T23:30:21.037Z,44.63
2018-12-25T23:32:52.246Z,44.47
2018-12-25T23:35:23.594Z,44.35
2018-12-25T23:37:55.879Z,44.23
2018-12-25T23:40:30.355Z,44.17
2018-12-25T23:43:08.262Z,44.36
2018-12-25T23:45:41.732Z,44.03
2018-12-25T23:48:14.635Z,44.12
2018-12-25T23:50:50.267Z,43.87
2018-12-25T23:53:22.418Z,43.88
2018-12-25T23:55:57.215Z,44.42
2018-12-25T23:58:27.880Z,44.31
